Time;durP1;ratioP1;P1;durP2;ratioP2;P2;SDS_P1;SDS_P2;PMS_P1;PMS_P2;Temp;Humidity;BMP_temperature;BMP_pressure;BME280_temperature;BME280_humidity;BME280_pressure;Samples;Min_cycle;Max_cycle;Signal;HPM_P1;HPM_P2
2020/12/17 00:00:24;;;;;;;379.63;55.85;;;5.40;91.60;;;;;;5094688;28;20051;-46
2020/12/17 00:02:50;;;;;;;345.58;53.90;;;5.10;92.60;;;;;;5094611;28;20127;-47
2020/12/17 00:05:17;;;;;;;225.25;51.83;;;5.00;92.80;;;;;;5094407;28;20036;-47
2020/12/17 00:07:43;;;;;;;224.85;54.78;;;5.20;93.00;;;;;;5093539;28;20056;-47
2020/12/17 00:10:11;;;;;;;349.73;47.17;;;5.70;94.80;;;;;;5094601;28;20077;-46
2020/12/17 00:12:38;;;;;;;384.83;61.85;;;5.20;96.70;;;;;;5094313;28;20376;-46
2020/12/17 00:15:06;;;;;;;248.95;61.28;;;5.20;97.10;;;;;;5093718;28;20043;-46
2020/12/17 00:17:32;;;;;;;366.23;59.80;;;;;;;;;;5074691;28;20395;-46
2020/12/17 00:19:58;;;;;;;403.15;62.72;;;5.00;92.90;;;;;;5091899;28;20131;-46
2020/12/17 00:22:24;;;;;;;270.88;50.80;;;;;;;;;;5092023;28;20115;-47
2020/12/17 00:24:50;;;;;;;330.15;62.03;;;4.70;95.30;;;;;;5091739;28;20032;-46
2020/12/17 00:27:16;;;;;;;301.10;55.47;;;4.50;94.30;;;;;;5058364;28;20360;-46
2020/12/17 00:29:42;;;;;;;389.65;68.35;;;4.30;94.90;;;;;;5091607;28;20027;-46
2020/12/17 00:32:08;;;;;;;336.80;62.75;;;4.30;96.10;;;;;;5091780;28;20466;-47
2020/12/17 00:34:34;;;;;;;304.08;62.30;;;4.30;95.10;;;;;;5090855;28;20028;-46
2020/12/17 00:36:59;;;;;;;227.63;49.95;;;4.40;95.00;;;;;;5058265;28;20047;-46
2020/12/17 00:39:25;;;;;;;184.20;41.08;;;4.40;94.60;;;;;;5058150;28;20039;-46
2020/12/17 00:41:51;;;;;;;324.45;58.38;;;4.20;94.90;;;;;;5058632;28;20036;-46
2020/12/17 00:44:16;;;;;;;299.15;57.15;;;4.50;97.10;;;;;;5091642;28;20128;-47
2020/12/17 00:46:42;;;;;;;314.92;55.92;;;4.90;93.90;;;;;;5091662;28;20046;-47
2020/12/17 00:49:08;;;;;;;207.20;52.50;;;5.30;92.90;;;;;;5093474;28;20032;-46
2020/12/17 00:51:34;;;;;;;246.73;52.70;;;5.50;91.90;;;;;;5091889;28;20039;-46
2020/12/17 00:53:59;;;;;;;200.07;59.25;;;5.20;92.20;;;;;;5093956;28;20116;-47
2020/12/17 00:56:25;;;;;;;259.55;52.95;;;5.40;92.10;;;;;;5093691;28;20051;-47
2020/12/17 00:58:51;;;;;;;193.20;54.78;;;5.70;91.90;;;;;;5093591;28;20077;-47
2020/12/17 01:01:16;;;;;;;153.80;52.65;;;6.10;96.30;;;;;;5093512;28;20073;-46
2020/12/17 01:03:42;;;;;;;208.30;59.03;;;6.10;90.70;;;;;;5093400;28;20025;-47
2020/12/17 01:06:08;;;;;;;228.38;61.17;;;6.00;90.30;;;;;;5109009;28;20115;-46
2020/12/17 01:08:35;;;;;;;244.68;50.25;;;5.70;90.80;;;;;;5093288;28;20033;-47
2020/12/17 01:11:01;;;;;;;222.27;52.83;;;;;;;;;;5093131;28;20036;-47
2020/12/17 01:13:27;;;;;;;191.80;49.97;;;6.00;90.40;;;;;;5093316;28;20036;-46
2020/12/17 01:15:52;;;;;;;201.45;50.95;;;6.10;90.20;;;;;;5093708;28;20108;-47
2020/12/17 01:18:18;;;;;;;146.57;48.50;;;6.10;90.30;;;;;;5093471;28;20023;-47
2020/12/17 01:20:44;;;;;;;168.82;49.67;;;6.30;89.90;;;;;;5093468;28;20089;-47
2020/12/17 01:23:09;;;;;;;180.45;51.90;;;6.40;89.40;;;;;;5093444;28;20028;-47
2020/12/17 01:25:35;;;;;;;150.18;51.60;;;6.20;89.90;;;;;;5093271;28;20036;-46
2020/12/17 01:28:01;;;;;;;212.00;54.58;;;6.40;89.90;;;;;;5111716;28;20040;-47
2020/12/17 01:30:27;;;;;;;211.38;55.25;;;6.30;90.00;;;;;;5095414;28;20036;-46
2020/12/17 01:32:53;;;;;;;288.35;53.20;;;6.30;89.50;;;;;;5097602;28;20023;-47
2020/12/17 01:35:20;;;;;;;177.38;50.00;;;6.00;89.40;;;;;;5097437;28;20121;-47
2020/12/17 01:37:46;;;;;;;285.00;52.05;;;5.90;90.30;;;;;;5097337;28;20088;-46
2020/12/17 01:40:11;;;;;;;231.02;49.22;;;5.90;90.00;;;;;;5097178;28;20535;-47
2020/12/17 01:42:37;;;;;;;157.68;50.28;;;5.90;90.20;;;;;;5097210;28;20032;-47
2020/12/17 01:45:04;;;;;;;176.90;50.28;;;5.70;90.70;;;;;;5095246;28;20052;-47
2020/12/17 01:47:37;;;;;;;175.82;47.00;;;5.70;90.50;;;;;;5097077;28;20027;-46
2020/12/17 01:50:06;;;;;;;136.55;46.33;;;5.60;90.90;;;;;;5112191;28;20039;-47
2020/12/17 01:52:33;;;;;;;125.18;45.55;;;6.00;90.30;;;;;;5097011;28;20060;-47
2020/12/17 01:55:00;;;;;;;159.57;49.22;;;6.20;90.00;;;;;;5097167;28;20365;-47
2020/12/17 01:57:32;;;;;;;124.57;45.15;;;6.10;89.70;;;;;;5096970;28;20021;-46
2020/12/17 02:00:07;;;;;;;189.27;49.78;;;6.20;89.50;;;;;;5096911;28;20036;-46
2020/12/17 02:02:34;;;;;;;146.15;47.50;;;6.00;89.20;;;;;;5111965;28;20024;-46
2020/12/17 02:05:01;;;;;;;134.63;47.15;;;5.90;90.50;;;;;;5097194;28;20438;-46
2020/12/17 02:07:28;;;;;;;199.57;47.30;;;6.00;90.10;;;;;;5112191;28;20047;-46
2020/12/17 02:09:54;;;;;;;240.30;49.38;;;5.80;90.10;;;;;;5096397;28;20048;-46
2020/12/17 02:12:20;;;;;;;147.98;49.63;;;6.00;89.90;;;;;;5096657;28;20111;-47
2020/12/17 02:14:46;;;;;;;142.43;45.80;;;5.90;90.10;;;;;;5111852;28;20114;-46
2020/12/17 02:17:12;;;;;;;189.30;51.08;;;5.90;90.40;;;;;;5095213;28;20024;-46
2020/12/17 02:19:37;;;;;;;123.20;47.00;;;5.80;90.50;;;;;;5096581;28;20480;-46
2020/12/17 02:22:03;;;;;;;209.68;44.83;;;5.80;90.60;;;;;;5095177;28;20344;-47
2020/12/17 02:24:29;;;;;;;165.35;43.40;;;6.00;90.00;;;;;;5060892;28;20055;-47
2020/12/17 02:26:55;;;;;;;211.32;45.92;;;5.50;90.30;;;;;;5096330;28;20485;-47
2020/12/17 02:29:21;;;;;;;220.52;45.60;;;5.50;90.60;;;;;;5096533;28;20036;-46
2020/12/17 02:31:47;;;;;;;215.95;42.90;;;5.80;90.40;;;;;;5096176;28;20471;-47
2020/12/17 02:34:13;;;;;;;169.38;42.35;;;6.10;89.30;;;;;;5111467;28;20035;-46
2020/12/17 02:36:39;;;;;;;169.32;41.35;;;6.30;88.80;;;;;;5096103;28;20027;-47
2020/12/17 02:39:05;;;;;;;102.43;40.47;;;6.30;87.60;;;;;;5095193;28;20081;-47
2020/12/17 02:41:31;;;;;;;126.38;45.70;;;6.30;87.60;;;;;;5096053;28;20036;-46
2020/12/17 02:43:57;;;;;;;115.22;43.20;;;6.30;88.10;;;;;;5095956;28;20074;-46
2020/12/17 02:46:23;;;;;;;155.70;41.58;;;6.40;88.00;;;;;;5096059;28;20499;-47
2020/12/17 02:48:50;;;;;;;122.55;43.92;;;6.50;87.40;;;;;;5096033;28;20024;-47
2020/12/17 02:51:16;;;;;;;165.45;43.95;;;6.40;87.20;;;;;;5096027;28;20528;-47
2020/12/17 02:53:42;;;;;;;151.07;46.33;;;6.40;86.90;;;;;;5095931;28;20111;-47
2020/12/17 02:56:07;;;;;;;168.90;48.10;;;6.30;87.60;;;;;;5095698;28;20031;-47
2020/12/17 02:58:33;;;;;;;110.15;41.45;;;6.40;88.00;;;;;;5094663;28;20437;-46
2020/12/17 03:00:59;;;;;;;129.63;41.42;;;6.50;87.50;;;;;;5095626;28;20020;-47
2020/12/17 03:03:25;;;;;;;196.82;42.33;;;6.40;87.30;;;;;;5059974;28;20078;-46
2020/12/17 03:05:52;;;;;;;138.90;43.08;;;;;;;;;;5095739;28;20499;-46
2020/12/17 03:08:18;;;;;;;157.23;41.35;;;5.50;90.60;;;;;;5095468;28;20035;-46
2020/12/17 03:10:43;;;;;;;164.80;40.65;;;5.50;90.30;;;;;;5095395;28;20047;-46
2020/12/17 03:13:09;;;;;;;116.70;41.03;;;5.60;89.70;;;;;;5095429;28;20031;-47
2020/12/17 03:15:35;;;;;;;150.32;42.20;;;5.50;90.40;;;;;;5093695;28;20028;-46
2020/12/17 03:18:01;;;;;;;146.90;39.65;;;5.50;90.50;;;;;;5095444;28;20511;-47
2020/12/17 03:20:26;;;;;;;112.40;38.63;;;5.50;90.00;;;;;;5095276;28;20425;-47
2020/12/17 03:22:52;;;;;;;180.63;38.47;;;5.60;90.40;;;;;;5076099;28;20028;-46
2020/12/17 03:25:18;;;;;;;155.80;38.65;;;5.20;90.40;;;;;;5095119;28;20040;-46
2020/12/17 03:27:44;;;;;;;209.38;40.15;;;4.80;91.60;;;;;;5059759;28;20035;-46
2020/12/17 03:30:09;;;;;;;140.23;37.85;;;5.20;91.60;;;;;;5095118;28;20035;-46
2020/12/17 03:32:35;;;;;;;126.18;39.60;;;5.70;91.70;;;;;;5094867;28;20034;-46
2020/12/17 03:35:01;;;;;;;100.53;39.83;;;5.80;90.10;;;;;;5093722;28;20446;-47
2020/12/17 03:37:27;;;;;;;96.30;37.25;;;5.90;89.60;;;;;;5094900;28;20031;-47
2020/12/17 03:39:52;;;;;;;137.63;38.60;;;6.10;89.00;;;;;;5095109;28;20024;-46
2020/12/17 03:42:19;;;;;;;123.47;41.13;;;6.00;88.10;;;;;;5093852;28;20503;-47
2020/12/17 03:44:45;;;;;;;118.35;38.85;;;5.70;90.20;;;;;;5094755;28;20467;-46
2020/12/17 03:47:11;;;;;;;120.25;40.13;;;5.90;90.00;;;;;;5094866;28;20020;-46
2020/12/17 03:49:37;;;;;;;172.18;39.55;;;5.80;89.90;;;;;;5094326;28;20042;-46
2020/12/17 03:52:03;;;;;;;176.30;41.83;;;5.60;89.70;;;;;;5094174;28;20388;-47
2020/12/17 03:54:28;;;;;;;145.30;38.60;;;5.60;90.30;;;;;;5094514;28;20024;-47
2020/12/17 03:56:54;;;;;;;105.15;39.63;;;5.60;89.90;;;;;;5093429;28;20035;-47
2020/12/17 03:59:20;;;;;;;106.75;40.38;;;5.90;89.70;;;;;;5092652;28;20036;-46
2020/12/17 04:01:46;;;;;;;104.78;39.22;;;6.00;89.40;;;;;;5094356;28;20021;-47
2020/12/17 04:04:11;;;;;;;100.22;38.72;;;5.70;90.20;;;;;;5092594;28;20063;-46
2020/12/17 04:06:37;;;;;;;95.53;37.10;;;5.90;89.50;;;;;;5094392;28;20069;-46
2020/12/17 04:09:03;;;;;;;151.90;38.45;;;6.10;87.60;;;;;;5094235;28;20127;-46
2020/12/17 04:11:29;;;;;;;104.75;40.40;;;;;;;;;;5109547;28;20059;-46
2020/12/17 04:13:55;;;;;;;83.53;36.45;;;5.70;92.40;;;;;;5094305;28;20031;-47
2020/12/17 04:16:21;;;;;;;96.03;38.22;;;;;;;;;;5094179;28;20028;-46
2020/12/17 04:18:47;;;;;;;106.80;38.05;;;6.00;89.10;;;;;;5109457;28;20040;-46
2020/12/17 04:21:12;;;;;;;150.38;40.08;;;6.10;88.00;;;;;;5094230;28;20024;-47
2020/12/17 04:23:39;;;;;;;150.82;38.58;;;;;;;;;;5108918;28;20032;-47
2020/12/17 04:26:04;;;;;;;147.57;38.67;;;5.60;88.70;;;;;;5094148;28;20039;-46
2020/12/17 04:28:30;;;;;;;157.65;39.63;;;4.90;91.00;;;;;;5094002;28;20032;-47
2020/12/17 04:30:56;;;;;;;148.55;38.80;;;4.80;91.60;;;;;;5094671;28;20105;-46
2020/12/17 04:33:22;;;;;;;129.52;36.92;;;4.80;91.50;;;;;;5092501;28;20043;-46
2020/12/17 04:35:48;;;;;;;100.43;35.55;;;5.00;91.20;;;;;;5094076;28;20498;-46
2020/12/17 04:38:13;;;;;;;88.80;37.10;;;5.20;91.00;;;;;;5093861;28;20028;-46
2020/12/17 04:40:39;;;;;;;149.07;35.15;;;5.30;90.90;;;;;;5093977;28;20031;-46
2020/12/17 04:43:05;;;;;;;119.97;36.22;;;5.10;90.40;;;;;;5094021;28;20026;-47
2020/12/17 04:45:31;;;;;;;95.22;37.05;;;5.00;90.70;;;;;;5092233;28;20055;-46
2020/12/17 04:47:58;;;;;;;102.32;35.53;;;4.90;91.40;;;;;;5092697;28;20471;-46
2020/12/17 04:50:26;;;;;;;80.45;31.90;;;4.80;91.10;;;;;;5093744;28;20024;-46
2020/12/17 04:53:00;;;;;;;61.15;29.65;;;5.00;91.50;;;;;;5091641;28;20391;-46
2020/12/17 04:55:29;;;;;;;89.22;32.55;;;5.30;90.30;;;;;;5093674;28;20074;-46
2020/12/17 04:57:58;;;;;;;93.50;34.33;;;5.30;90.00;;;;;;5093542;28;20395;-46
2020/12/17 05:00:23;;;;;;;120.90;36.08;;;4.90;90.80;;;;;;5093989;28;20065;-46
2020/12/17 05:02:53;;;;;;;96.68;36.08;;;4.90;91.10;;;;;;5093215;28;20414;-47
2020/12/17 05:05:19;;;;;;;91.75;40.17;;;4.80;91.50;;;;;;5093601;28;20036;-46
2020/12/17 05:07:45;;;;;;;93.47;35.42;;;5.00;91.60;;;;;;5093515;28;20031;-47
2020/12/17 05:10:11;;;;;;;82.25;36.72;;;5.30;90.70;;;;;;5093222;28;20044;-47
2020/12/17 05:12:36;;;;;;;110.63;36.08;;;5.30;90.70;;;;;;5093490;28;20158;-47
2020/12/17 05:15:03;;;;;;;109.50;30.33;;;5.50;90.00;;;;;;5093540;28;20487;-47
2020/12/17 05:17:31;;;;;;;123.55;34.10;;;5.10;90.40;;;;;;5093507;28;20035;-46
2020/12/17 05:19:58;;;;;;;151.52;36.45;;;4.90;91.10;;;;;;5093350;28;20028;-46
2020/12/17 05:22:24;;;;;;;116.82;38.20;;;4.60;92.20;;;;;;5093498;28;20067;-46
2020/12/17 05:24:50;;;;;;;176.02;32.47;;;4.60;92.70;;;;;;5093241;28;20032;-46
2020/12/17 05:27:16;;;;;;;169.48;37.13;;;4.10;93.40;;;;;;5093250;28;20416;-46
2020/12/17 05:29:42;;;;;;;181.85;38.03;;;4.00;94.10;;;;;;5093364;28;20024;-46
2020/12/17 05:32:10;;;;;;;203.45;39.15;;;4.10;93.90;;;;;;5093346;28;20107;-46
2020/12/17 05:34:36;;;;;;;214.43;39.47;;;4.10;94.20;;;;;;5093363;28;20407;-46
2020/12/17 05:37:07;;;;;;;144.05;37.83;;;4.30;93.60;;;;;;5093109;28;20024;-46
2020/12/17 05:39:34;;;;;;;120.03;35.72;;;4.50;93.10;;;;;;5093210;28;20073;-46
2020/12/17 05:42:01;;;;;;;145.07;35.50;;;4.60;93.40;;;;;;5093126;28;20073;-46
2020/12/17 05:44:29;;;;;;;148.43;33.28;;;4.90;92.30;;;;;;5092886;28;20119;-46
2020/12/17 05:46:57;;;;;;;151.95;38.42;;;4.70;92.20;;;;;;5108375;28;20032;-46
2020/12/17 05:49:27;;;;;;;198.20;37.72;;;5.00;92.40;;;;;;5093292;28;20028;-42
2020/12/17 05:52:11;;;;;;;150.20;37.58;;;5.30;91.60;;;;;;5093155;28;20437;-46
2020/12/17 05:54:52;;;;;;;149.27;36.67;;;5.50;90.80;;;;;;5092965;28;20035;-46
2020/12/17 05:57:18;;;;;;;149.85;41.33;;;4.90;91.50;;;;;;5092467;28;20020;-47
2020/12/17 05:59:58;;;;;;;236.27;41.50;;;4.90;92.10;;;;;;5090624;28;20052;-46
2020/12/17 06:02:26;;;;;;;161.55;36.65;;;4.60;92.50;;;;;;5090405;28;20035;-47
2020/12/17 06:05:11;;;;;;;106.53;35.65;;;4.90;92.40;;;;;;5090639;28;20040;-47
2020/12/17 06:07:49;;;;;;;114.63;35.53;;;5.30;91.50;;;;;;5090848;28;20024;-47
2020/12/17 06:10:17;;;;;;;112.53;35.72;;;5.50;91.00;;;;;;5090369;28;20556;-47
2020/12/17 06:12:45;;;;;;;114.22;34.15;;;5.60;90.50;;;;;;5090156;28;20203;-47
2020/12/17 06:15:23;;;;;;;149.40;32.95;;;5.30;90.60;;;;;;5093565;28;20047;-47
2020/12/17 06:17:55;;;;;;;152.65;32.60;;;4.90;91.20;;;;;;5094503;28;20036;-47
2020/12/17 06:20:23;;;;;;;134.93;32.78;;;4.50;91.90;;;;;;5060679;28;20583;-46
2020/12/17 06:22:54;;;;;;;125.13;34.05;;;4.30;92.90;;;;;;5094201;28;20028;-46
2020/12/17 06:25:20;;;;;;;118.57;36.13;;;4.30;93.10;;;;;;5094242;28;20044;-47
2020/12/17 06:27:50;;;;;;;154.05;40.67;;;4.70;92.90;;;;;;5094147;28;20073;-47
2020/12/17 06:30:22;;;;;;;194.07;38.72;;;4.80;91.90;;;;;;5094654;28;20391;-49
2020/12/17 06:32:48;;;;;;;128.50;38.75;;;4.40;92.80;;;;;;5095018;28;20502;-47
2020/12/17 06:35:24;;;;;;;107.15;34.97;;;4.70;92.50;;;;;;5111250;28;20479;-47
2020/12/17 06:37:51;;;;;;;194.23;40.60;;;5.20;91.70;;;;;;5096096;28;20032;-48
2020/12/17 06:40:29;;;;;;;134.43;35.28;;;5.10;90.90;;;;;;5096034;28;20024;-47
2020/12/17 06:42:56;;;;;;;131.88;36.25;;;5.10;91.10;;;;;;5111307;28;20109;-48
2020/12/17 06:45:33;;;;;;;100.60;35.28;;;5.30;91.30;;;;;;5095872;28;20047;-47
2020/12/17 06:48:19;;;;;;;128.07;36.38;;;5.50;90.80;;;;;;5095903;28;20024;-46
2020/12/17 06:50:45;;;;;;;89.38;34.80;;;5.60;90.50;;;;;;5095745;28;20471;-47
2020/12/17 06:53:12;;;;;;;139.77;39.05;;;5.70;90.20;;;;;;5095702;28;20020;-47
2020/12/17 06:55:47;;;;;;;129.75;33.05;;;6.00;90.00;;;;;;5110728;28;20036;-47
2020/12/17 06:58:21;;;;;;;118.78;37.10;;;5.80;88.10;;;;;;5095705;28;20024;-46
2020/12/17 07:00:52;;;;;;;185.73;32.55;;;5.80;88.60;;;;;;5095862;28;20024;-46
2020/12/17 07:03:40;;;;;;;123.77;35.30;;;5.00;90.90;;;;;;5095734;28;20054;-47
2020/12/17 07:06:24;;;;;;;113.88;32.90;;;5.10;91.50;;;;;;5095296;28;20763;-46
2020/12/17 07:08:52;;;;;;;124.03;30.85;;;5.50;90.80;;;;;;5095331;28;20083;-47
2020/12/17 07:11:48;;;;;;;155.98;31.27;;;5.80;89.60;;;;;;5059993;28;20168;-46
2020/12/17 07:14:34;;;;;;;124.10;31.73;;;5.70;88.70;;;;;;5095187;28;20060;-46
2020/12/17 07:17:02;;;;;;;94.22;31.30;;;6.00;88.40;;;;;;5095363;28;20036;-46
2020/12/17 07:19:30;;;;;;;85.22;31.77;;;6.10;87.60;;;;;;5094224;28;20364;-47
2020/12/17 07:22:14;;;;;;;79.68;35.97;;;6.00;87.70;;;;;;5095428;28;20024;-47
2020/12/17 07:24:51;;;;;;;89.25;33.33;;;6.10;87.80;;;;;;5092857;28;20086;-46
2020/12/17 07:27:23;;;;;;;88.65;31.98;;;6.00;89.80;;;;;;5092948;28;20032;-47
2020/12/17 07:29:50;;;;;;;82.25;31.92;;;6.00;89.40;;;;;;5092983;28;20565;-47
2020/12/17 07:32:22;;;;;;;78.90;33.35;;;6.10;89.70;;;;;;5092969;28;20379;-46
2020/12/17 07:34:48;;;;;;;86.85;32.40;;;5.90;89.90;;;;;;5092811;28;20058;-47
2020/12/17 07:37:38;;;;;;;97.22;33.30;;;5.70;88.80;;;;;;5092684;28;20491;-46
2020/12/17 07:40:31;;;;;;;91.82;30.98;;;5.60;89.20;;;;;;5075829;28;20491;-46
2020/12/17 07:43:13;;;;;;;106.78;33.67;;;5.80;89.00;;;;;;5031591;28;20103;-47
2020/12/17 07:45:58;;;;;;;119.13;32.95;;;6.00;88.90;;;;;;5029470;28;20083;-47
2020/12/17 07:48:43;;;;;;;115.07;31.80;;;;;;;;;;4997290;28;20049;-46
2020/12/17 07:51:09;;;;;;;131.73;31.08;;;6.50;85.10;;;;;;4991277;28;20158;-45
2020/12/17 07:53:36;;;;;;;91.90;31.20;;;6.60;85.70;;;;;;4992455;28;20042;-45
2020/12/17 07:56:03;;;;;;;84.90;30.75;;;6.60;84.50;;;;;;4992480;28;20716;-46
2020/12/17 07:58:29;;;;;;;89.97;30.98;;;6.70;84.10;;;;;;4991609;28;20073;-45
2020/12/17 08:00:55;;;;;;;105.70;29.50;;;6.60;84.50;;;;;;4991425;28;20042;-45
2020/12/17 08:03:22;;;;;;;126.97;31.80;;;6.70;83.70;;;;;;5007781;28;20390;-45
2020/12/17 08:05:48;;;;;;;101.20;33.25;;;6.80;83.80;;;;;;4975102;28;20195;-46
2020/12/17 08:08:18;;;;;;;113.32;31.83;;;6.80;83.00;;;;;;4991536;28;20132;-46
2020/12/17 08:10:44;;;;;;;112.53;36.58;;;6.80;83.00;;;;;;4988899;28;20082;-46
2020/12/17 08:13:11;;;;;;;141.23;33.40;;;6.90;83.00;;;;;;4991421;28;20047;-46
2020/12/17 08:15:37;;;;;;;71.90;29.08;;;6.90;82.30;;;;;;4991291;28;20085;-46
2020/12/17 08:18:04;;;;;;;93.65;31.20;;;6.90;82.10;;;;;;4991410;28;20117;-46
2020/12/17 08:20:31;;;;;;;116.65;28.65;;;7.00;81.80;;;;;;5034354;28;20033;-46
2020/12/17 08:22:56;;;;;;;102.72;29.25;;;7.00;82.10;;;;;;5085483;28;20103;-45
2020/12/17 08:25:24;;;;;;;160.73;42.42;;;6.90;81.00;;;;;;5092901;28;20047;-46
2020/12/17 08:27:51;;;;;;;132.75;34.70;;;6.60;81.30;;;;;;5107797;28;20036;-46
2020/12/17 08:30:21;;;;;;;160.30;34.97;;;6.60;83.80;;;;;;5092250;28;20035;-46
2020/12/17 08:32:54;;;;;;;122.35;49.00;;;6.70;82.80;;;;;;5092394;28;20039;-47
2020/12/17 08:35:25;;;;;;;107.90;34.22;;;6.50;82.80;;;;;;5087411;28;20024;-46
2020/12/17 08:37:53;;;;;;;110.63;35.00;;;6.80;83.20;;;;;;5091849;28;20431;-46
2020/12/17 08:40:25;;;;;;;98.90;34.13;;;6.90;82.40;;;;;;5074577;28;20528;-46
2020/12/17 08:42:56;;;;;;;120.22;40.60;;;6.60;80.90;;;;;;5070387;28;20064;-45
2020/12/17 08:45:25;;;;;;;97.00;34.40;;;6.30;83.10;;;;;;5072289;28;20059;-46
2020/12/17 08:47:55;;;;;;;109.40;35.78;;;6.30;84.40;;;;;;5070297;28;20044;-46
2020/12/17 08:50:21;;;;;;;112.57;34.42;;;6.50;84.60;;;;;;5086973;28;20384;-46
2020/12/17 08:52:49;;;;;;;188.07;93.10;;;6.40;83.40;;;;;;5072270;28;20029;-46
2020/12/17 10:29:20;;;;;;;71.93;32.95;;;7.80;78.00;;;;;;5086379;28;20544;-49
2020/12/17 10:31:49;;;;;;;103.93;35.55;;;7.90;77.40;;;;;;5093295;28;20123;-50
2020/12/17 10:34:16;;;;;;;90.65;43.38;;;7.70;77.20;;;;;;5110355;28;20028;-49
2020/12/17 10:36:42;;;;;;;97.35;42.80;;;7.50;78.90;;;;;;5095132;28;20107;-50
2020/12/17 10:39:12;;;;;;;223.93;105.32;;;7.70;80.30;;;;;;5095455;28;20020;-49
2020/12/17 10:41:39;;;;;;;90.15;46.97;;;7.40;79.70;;;;;;5096146;28;20039;-52
2020/12/17 10:44:05;;;;;;;90.32;42.90;;;7.60;81.10;;;;;;5095816;28;20047;-51
2020/12/17 10:46:32;;;;;;;98.80;41.75;;;7.60;79.90;;;;;;5095997;28;20035;-51
2020/12/17 10:49:04;;;;;;;64.60;35.45;;;7.60;80.10;;;;;;5108491;27;20111;-52
2020/12/17 10:51:31;;;;;;;72.32;36.13;;;7.70;79.60;;;;;;5075556;28;20058;-50
2020/12/17 10:53:56;;;;;;;83.38;44.58;;;8.00;79.00;;;;;;5082719;28;20119;-50
2020/12/17 10:56:22;;;;;;;61.03;32.50;;;7.60;78.90;;;;;;5093754;28;20115;-50
2020/12/17 10:58:50;;;;;;;66.45;34.38;;;7.50;79.30;;;;;;5095909;28;20032;-51
2020/12/17 11:01:19;;;;;;;100.38;35.75;;;7.40;79.60;;;;;;5095296;28;20034;-51
2020/12/17 11:03:45;;;;;;;86.93;36.30;;;7.70;79.30;;;;;;5094569;28;20073;-50
2020/12/17 11:06:18;;;;;;;77.65;39.70;;;7.90;78.70;;;;;;5075002;28;20040;-49
2020/12/17 11:08:44;;;;;;;78.60;38.17;;;7.80;78.30;;;;;;5075440;28;20407;-51
2020/12/17 11:11:11;;;;;;;77.88;36.92;;;7.80;79.50;;;;;;5075167;28;20086;-51
2020/12/17 11:13:37;;;;;;;76.47;39.20;;;7.80;78.60;;;;;;5056272;28;20040;-51
2020/12/17 11:16:03;;;;;;;83.97;40.88;;;7.60;80.40;;;;;;5074220;28;20072;-49
2020/12/17 11:18:29;;;;;;;78.00;42.53;;;7.30;80.70;;;;;;5075106;28;20025;-50
2020/12/17 11:20:55;;;;;;;75.90;44.00;;;6.90;81.40;;;;;;5072968;28;20089;-50
2020/12/17 11:23:20;;;;;;;88.22;45.30;;;6.80;83.30;;;;;;5072828;28;20484;-50
2020/12/17 11:25:46;;;;;;;84.35;42.58;;;6.70;83.30;;;;;;5074775;28;20047;-52
2020/12/17 11:28:12;;;;;;;86.20;45.33;;;7.00;82.20;;;;;;5074537;28;20048;-49
2020/12/17 11:30:38;;;;;;;89.43;47.65;;;6.80;83.00;;;;;;5079827;28;20032;-51
2020/12/17 11:33:04;;;;;;;94.40;48.33;;;6.90;84.20;;;;;;5089403;28;20032;-50
2020/12/17 11:35:31;;;;;;;101.13;52.58;;;7.10;83.00;;;;;;5075791;28;20040;-50
2020/12/17 11:37:58;;;;;;;94.88;49.53;;;7.20;82.80;;;;;;5075618;28;20032;-51
2020/12/17 11:40:24;;;;;;;103.03;51.40;;;7.20;82.10;;;;;;5094890;28;20059;-51
2020/12/17 11:42:51;;;;;;;111.32;55.30;;;7.10;82.50;;;;;;5095096;28;20024;-51
2020/12/17 11:45:17;;;;;;;116.72;58.25;;;7.20;81.70;;;;;;5094703;28;20051;-52
2020/12/17 11:47:43;;;;;;;118.82;57.85;;;7.10;82.40;;;;;;5079948;28;20491;-51
2020/12/17 11:50:09;;;;;;;116.03;56.38;;;7.30;81.00;;;;;;5074560;28;20032;-50
2020/12/17 11:52:36;;;;;;;114.07;55.53;;;6.90;81.90;;;;;;5073075;28;20044;-49
2020/12/17 11:55:04;;;;;;;92.50;48.38;;;6.90;82.70;;;;;;5074774;28;20456;-50
2020/12/17 11:57:30;;;;;;;114.53;53.53;;;6.80;82.00;;;;;;5072952;28;20044;-49
2020/12/17 11:59:56;;;;;;;105.40;53.38;;;6.80;83.50;;;;;;5072299;28;20043;-49
2020/12/17 12:02:22;;;;;;;116.93;56.67;;;6.90;82.30;;;;;;5072479;28;20039;-51
2020/12/17 12:04:47;;;;;;;118.93;60.30;;;6.60;83.90;;;;;;5074335;28;20037;-49
2020/12/17 12:07:13;;;;;;;121.18;58.10;;;6.40;85.30;;;;;;5072332;28;20060;-50
2020/12/17 12:09:39;;;;;;;113.00;55.15;;;6.40;85.20;;;;;;5072230;28;20633;-49
2020/12/17 12:12:05;;;;;;;136.13;65.15;;;6.60;85.50;;;;;;5071495;28;20425;-51
2020/12/17 12:14:31;;;;;;;136.10;67.13;;;6.60;84.80;;;;;;5073982;28;20388;-50
2020/12/17 12:16:56;;;;;;;133.63;61.53;;;6.70;85.10;;;;;;5085510;28;20070;-50
2020/12/17 12:19:22;;;;;;;131.02;65.82;;;6.90;84.30;;;;;;5094319;28;20020;-51
2020/12/17 12:21:49;;;;;;;125.50;63.22;;;6.90;83.50;;;;;;5058149;28;20051;-51
2020/12/17 12:24:15;;;;;;;113.43;57.58;;;6.90;83.30;;;;;;5094401;28;20468;-50
2020/12/17 12:26:41;;;;;;;120.13;57.08;;;7.10;83.20;;;;;;5091572;28;20070;-49
2020/12/17 12:29:07;;;;;;;117.68;59.25;;;7.10;82.10;;;;;;5058227;28;20106;-50
2020/12/17 12:31:33;;;;;;;119.05;57.88;;;7.30;81.70;;;;;;5075009;28;20040;-51
2020/12/17 12:33:59;;;;;;;118.57;59.22;;;7.40;80.10;;;;;;5091627;28;20036;-51
2020/12/17 12:36:24;;;;;;;120.00;62.20;;;7.40;80.30;;;;;;5092022;28;20040;-50
2020/12/17 12:38:50;;;;;;;120.53;60.58;;;7.60;80.80;;;;;;5091959;28;20036;-51
2020/12/17 12:41:19;;;;;;;116.70;57.00;;;7.70;79.80;;;;;;5092003;28;20119;-50
2020/12/17 12:43:45;;;;;;;124.72;58.25;;;7.80;79.20;;;;;;5091836;28;20036;-50
2020/12/17 12:46:11;;;;;;;129.65;61.15;;;7.90;78.40;;;;;;5074557;28;20056;-50
2020/12/17 12:48:37;;;;;;;132.57;63.53;;;7.90;78.80;;;;;;5091337;28;20032;-48
2020/12/17 12:51:04;;;;;;;113.82;56.10;;;7.90;79.00;;;;;;5024636;28;20090;-49
2020/12/17 12:53:31;;;;;;;116.68;56.08;;;7.90;77.80;;;;;;5091461;28;20404;-49
2020/12/17 12:55:57;;;;;;;126.53;60.70;;;7.80;78.70;;;;;;5091418;28;20495;-48
2020/12/17 12:58:23;;;;;;;112.53;56.28;;;7.70;79.60;;;;;;5093313;28;20036;-49
2020/12/17 13:00:52;;;;;;;102.95;52.30;;;7.80;79.00;;;;;;5093533;28;20028;-49
2020/12/17 13:03:19;;;;;;;109.35;53.70;;;7.90;78.90;;;;;;5093640;28;20032;-48
2020/12/17 13:05:45;;;;;;;113.65;53.10;;;7.90;78.10;;;;;;5091235;28;20056;-48
2020/12/17 13:08:11;;;;;;;107.47;52.22;;;7.50;79.00;;;;;;5091045;28;20040;-48
2020/12/17 13:10:37;;;;;;;116.55;53.17;;;7.50;79.60;;;;;;5050675;28;20052;-48
2020/12/17 13:13:06;;;;;;;140.38;50.28;;;7.60;80.50;;;;;;5051391;28;20128;-48
2020/12/17 13:15:36;;;;;;;140.77;63.67;;;7.70;78.80;;;;;;5051013;28;20041;-48
2020/12/17 13:18:03;;;;;;;110.18;50.67;;;7.80;79.10;;;;;;5050932;28;20037;-48
2020/12/17 13:20:29;;;;;;;100.25;47.95;;;7.70;78.90;;;;;;5051036;28;20052;-49
2020/12/17 13:22:55;;;;;;;91.43;45.00;;;7.50;79.50;;;;;;5052205;28;20440;-48
2020/12/17 13:25:21;;;;;;;87.93;45.60;;;7.50;79.50;;;;;;4995715;28;20086;-49
2020/12/17 13:27:47;;;;;;;90.57;46.47;;;7.60;79.10;;;;;;4993858;28;20113;-49
2020/12/17 13:30:14;;;;;;;92.35;46.40;;;7.40;79.90;;;;;;4994256;28;20069;-48
2020/12/17 13:32:39;;;;;;;87.88;46.05;;;7.50;80.30;;;;;;4961147;28;20053;-49
2020/12/17 13:35:05;;;;;;;102.57;50.38;;;7.40;80.20;;;;;;4994248;28;20524;-48
2020/12/17 13:37:32;;;;;;;177.82;67.88;;;7.40;81.10;;;;;;5010547;28;20096;-49
2020/12/17 13:39:58;;;;;;;113.50;51.00;;;7.30;80.50;;;;;;5013582;28;20049;-49
2020/12/17 13:42:25;;;;;;;159.48;51.47;;;7.40;80.30;;;;;;5029589;28;20045;-49
2020/12/17 13:44:50;;;;;;;88.45;46.13;;;7.50;79.70;;;;;;5033173;28;20085;-50
2020/12/17 13:47:16;;;;;;;97.20;47.58;;;7.50;80.00;;;;;;5033355;28;20160;-48
2020/12/17 13:49:42;;;;;;;107.38;51.35;;;7.50;79.40;;;;;;5033223;28;20104;-50
2020/12/17 13:52:08;;;;;;;115.43;56.72;;;7.50;79.90;;;;;;5033087;28;20045;-49
2020/12/17 13:54:34;;;;;;;130.77;56.17;;;7.40;80.00;;;;;;5033078;28;20557;-50
2020/12/17 13:57:03;;;;;;;162.38;64.40;;;7.20;80.70;;;;;;5065652;28;20066;-50
2020/12/17 13:59:30;;;;;;;128.27;56.97;;;6.90;81.40;;;;;;5075383;28;20064;-50
2020/12/17 14:01:56;;;;;;;128.27;58.35;;;7.10;82.30;;;;;;5075195;28;20480;-50
2020/12/17 14:04:23;;;;;;;132.95;59.63;;;7.10;82.30;;;;;;5075215;28;20519;-49
2020/12/17 14:06:48;;;;;;;159.60;69.22;;;7.00;82.30;;;;;;5072804;28;20045;-50